sensor_id;sensor_type;location;lat;lon;timestamp;P1;durP1;ratioP1;P2;durP2;ratioP2
291;SDS011;23311;48.776;9.162;2023-07-20T00:02:28;3.47;;;2.20;;
291;SDS011;23311;48.776;9.162;2023-07-20T00:04:56;4.10;;;2.00;;
291;SDS011;23311;48.776;9.162;2023-07-20T00:07:25;4.77;;;2.10;;
291;SDS011;23311;48.776;9.162;2023-07-20T00:09:53;2.67;;;1.80;;
291;SDS011;23311;48.776;9.162;2023-07-20T00:12:21;2.60;;;2.20;;
291;SDS011;23311;48.776;9.162;2023-07-20T00:14:49;2.83;;;1.80;;
291;SDS011;23311;48.776;9.162;2023-07-20T00:17:20;2.17;;;1.53;;
291;SDS011;23311;48.776;9.162;2023-07-20T00:19:49;4.43;;;2.43;;
291;SDS011;23311;48.776;9.162;2023-07-20T00:22:18;3.30;;;2.27;;
291;SDS011;23311;48.776;9.162;2023-07-20T00:24:46;3.00;;;2.13;;
291;SDS011;23311;48.776;9.162;2023-07-20T00:27:15;4.03;;;1.80;;
291;SDS011;23311;48.776;9.162;2023-07-20T00:29:44;2.40;;;1.60;;
291;SDS011;23311;48.776;9.162;2023-07-20T00:32:12;3.80;;;1.80;;
291;SDS011;23311;48.776;9.162;2023-07-20T00:34:40;3.97;;;2.00;;
291;SDS011;23311;48.776;9.162;2023-07-20T00:37:09;7.40;;;2.00;;
291;SDS011;23311;48.776;9.162;2023-07-20T00:39:37;4.63;;;1.70;;
291;SDS011;23311;48.776;9.162;2023-07-20T00:42:06;3.07;;;1.93;;
291;SDS011;23311;48.776;9.162;2023-07-20T00:44:34;3.43;;;2.20;;
291;SDS011;23311;48.776;9.162;2023-07-20T00:47:02;3.10;;;2.27;;
291;SDS011;23311;48.776;9.162;2023-07-20T00:49:31;2.83;;;1.50;;
291;SDS011;23311;48.776;9.162;2023-07-20T00:51:59;2.37;;;1.77;;
291;SDS011;23311;48.776;9.162;2023-07-20T00:54:29;3.73;;;2.53;;
291;SDS011;23311;48.776;9.162;2023-07-20T00:56:58;3.40;;;2.13;;
291;SDS011;23311;48.776;9.162;2023-07-20T00:59:27;2.17;;;1.87;;
291;SDS011;23311;48.776;9.162;2023-07-20T01:01:55;3.00;;;1.97;;
291;SDS011;23311;48.776;9.162;2023-07-20T01:04:24;2.90;;;2.13;;
291;SDS011;23311;48.776;9.162;2023-07-20T01:06:53;3.53;;;2.00;;
291;SDS011;23311;48.776;9.162;2023-07-20T01:09:31;4.70;;;1.70;;
291;SDS011;23311;48.776;9.162;2023-07-20T01:12:04;2.47;;;2.10;;
291;SDS011;23311;48.776;9.162;2023-07-20T01:14:35;2.30;;;1.60;;
291;SDS011;23311;48.776;9.162;2023-07-20T01:17:04;2.10;;;1.70;;
291;SDS011;23311;48.776;9.162;2023-07-20T01:19:33;2.40;;;1.87;;
291;SDS011;23311;48.776;9.162;2023-07-20T01:22:02;4.77;;;2.53;;
291;SDS011;23311;48.776;9.162;2023-07-20T01:30:45;4.40;;;2.70;;
291;SDS011;23311;48.776;9.162;2023-07-20T01:33:24;3.03;;;2.10;;
291;SDS011;23311;48.776;9.162;2023-07-20T01:35:54;4.23;;;2.40;;
291;SDS011;23311;48.776;9.162;2023-07-20T01:38:25;3.63;;;1.97;;
291;SDS011;23311;48.776;9.162;2023-07-20T01:40:53;4.80;;;1.90;;
291;SDS011;23311;48.776;9.162;2023-07-20T01:43:21;2.83;;;1.70;;
291;SDS011;23311;48.776;9.162;2023-07-20T01:45:50;3.40;;;2.20;;
291;SDS011;23311;48.776;9.162;2023-07-20T01:48:18;3.70;;;2.50;;
291;SDS011;23311;48.776;9.162;2023-07-20T01:50:48;3.37;;;1.87;;
291;SDS011;23311;48.776;9.162;2023-07-20T01:53:16;3.20;;;2.20;;
291;SDS011;23311;48.776;9.162;2023-07-20T01:55:44;3.70;;;2.13;;
291;SDS011;23311;48.776;9.162;2023-07-20T01:58:12;2.67;;;2.07;;
291;SDS011;23311;48.776;9.162;2023-07-20T02:00:40;3.60;;;2.57;;
291;SDS011;23311;48.776;9.162;2023-07-20T02:03:08;2.70;;;2.03;;
291;SDS011;23311;48.776;9.162;2023-07-20T02:05:38;2.40;;;1.90;;
291;SDS011;23311;48.776;9.162;2023-07-20T02:08:08;3.40;;;2.20;;
291;SDS011;23311;48.776;9.162;2023-07-20T02:10:36;2.60;;;1.97;;
291;SDS011;23311;48.776;9.162;2023-07-20T02:13:04;3.90;;;2.37;;
291;SDS011;23311;48.776;9.162;2023-07-20T02:15:32;3.50;;;2.67;;
291;SDS011;23311;48.776;9.162;2023-07-20T02:18:00;3.37;;;2.00;;
291;SDS011;23311;48.776;9.162;2023-07-20T02:20:29;3.40;;;2.10;;
291;SDS011;23311;48.776;9.162;2023-07-20T02:22:58;3.63;;;1.80;;
291;SDS011;23311;48.776;9.162;2023-07-20T02:25:27;5.03;;;2.83;;
291;SDS011;23311;48.776;9.162;2023-07-20T02:27:56;2.83;;;2.13;;
291;SDS011;23311;48.776;9.162;2023-07-20T02:30:24;3.07;;;2.40;;
291;SDS011;23311;48.776;9.162;2023-07-20T02:32:53;2.63;;;1.97;;
291;SDS011;23311;48.776;9.162;2023-07-20T02:35:25;4.33;;;2.40;;
291;SDS011;23311;48.776;9.162;2023-07-20T02:37:53;2.70;;;2.20;;
291;SDS011;23311;48.776;9.162;2023-07-20T02:40:21;3.83;;;2.17;;
291;SDS011;23311;48.776;9.162;2023-07-20T02:42:51;3.40;;;2.30;;
291;SDS011;23311;48.776;9.162;2023-07-20T02:45:19;3.30;;;2.13;;
291;SDS011;23311;48.776;9.162;2023-07-20T02:47:47;3.00;;;2.30;;
291;SDS011;23311;48.776;9.162;2023-07-20T02:50:16;3.87;;;2.50;;
291;SDS011;23311;48.776;9.162;2023-07-20T02:52:44;4.13;;;2.30;;
291;SDS011;23311;48.776;9.162;2023-07-20T02:55:12;3.10;;;1.73;;
291;SDS011;23311;48.776;9.162;2023-07-20T02:57:41;4.00;;;2.07;;
291;SDS011;23311;48.776;9.162;2023-07-20T03:00:11;2.77;;;2.27;;
291;SDS011;23311;48.776;9.162;2023-07-20T03:02:42;3.33;;;1.90;;
291;SDS011;23311;48.776;9.162;2023-07-20T03:05:11;3.10;;;2.00;;
291;SDS011;23311;48.776;9.162;2023-07-20T03:07:39;4.90;;;2.30;;
291;SDS011;23311;48.776;9.162;2023-07-20T03:10:08;2.50;;;1.87;;
291;SDS011;23311;48.776;9.162;2023-07-20T03:12:37;4.70;;;2.40;;
291;SDS011;23311;48.776;9.162;2023-07-20T03:15:05;3.93;;;1.90;;
291;SDS011;23311;48.776;9.162;2023-07-20T03:17:35;4.50;;;2.10;;
291;SDS011;23311;48.776;9.162;2023-07-20T03:20:04;3.03;;;2.20;;
291;SDS011;23311;48.776;9.162;2023-07-20T03:22:35;2.80;;;2.07;;
291;SDS011;23311;48.776;9.162;2023-07-20T03:25:04;3.07;;;1.33;;
291;SDS011;23311;48.776;9.162;2023-07-20T03:27:32;6.37;;;2.00;;
291;SDS011;23311;48.776;9.162;2023-07-20T03:30:00;4.30;;;2.10;;
291;SDS011;23311;48.776;9.162;2023-07-20T03:32:29;7.43;;;2.70;;
291;SDS011;23311;48.776;9.162;2023-07-20T03:34:58;2.63;;;2.20;;
291;SDS011;23311;48.776;9.162;2023-07-20T03:37:26;3.87;;;2.07;;
291;SDS011;23311;48.776;9.162;2023-07-20T03:39:54;4.50;;;2.10;;
291;SDS011;23311;48.776;9.162;2023-07-20T03:42:23;3.43;;;2.00;;
291;SDS011;23311;48.776;9.162;2023-07-20T03:44:51;3.40;;;2.30;;
291;SDS011;23311;48.776;9.162;2023-07-20T03:47:19;3.10;;;1.90;;
291;SDS011;23311;48.776;9.162;2023-07-20T03:49:47;4.47;;;2.30;;
291;SDS011;23311;48.776;9.162;2023-07-20T03:52:16;3.30;;;1.83;;
291;SDS011;23311;48.776;9.162;2023-07-20T03:54:44;3.83;;;1.90;;
291;SDS011;23311;48.776;9.162;2023-07-20T03:57:13;4.10;;;2.10;;
291;SDS011;23311;48.776;9.162;2023-07-20T03:59:44;2.97;;;1.90;;
291;SDS011;23311;48.776;9.162;2023-07-20T04:02:13;3.10;;;2.40;;
291;SDS011;23311;48.776;9.162;2023-07-20T04:04:41;2.70;;;1.83;;
291;SDS011;23311;48.776;9.162;2023-07-20T04:07:09;2.50;;;1.93;;
291;SDS011;23311;48.776;9.162;2023-07-20T04:09:39;4.73;;;3.40;;
291;SDS011;23311;48.776;9.162;2023-07-20T04:12:08;5.70;;;2.37;;
291;SDS011;23311;48.776;9.162;2023-07-20T04:14:36;5.00;;;2.10;;
291;SDS011;23311;48.776;9.162;2023-07-20T04:17:04;3.40;;;2.03;;
291;SDS011;23311;48.776;9.162;2023-07-20T04:19:32;2.37;;;1.90;;
291;SDS011;23311;48.776;9.162;2023-07-20T04:22:01;2.30;;;1.40;;
291;SDS011;23311;48.776;9.162;2023-07-20T04:24:29;3.73;;;2.13;;
291;SDS011;23311;48.776;9.162;2023-07-20T04:26:58;6.13;;;2.23;;
291;SDS011;23311;48.776;9.162;2023-07-20T04:29:27;3.20;;;1.90;;
291;SDS011;23311;48.776;9.162;2023-07-20T04:31:55;2.90;;;2.30;;
291;SDS011;23311;48.776;9.162;2023-07-20T04:34:23;3.30;;;2.10;;
291;SDS011;23311;48.776;9.162;2023-07-20T04:36:51;2.77;;;1.60;;
291;SDS011;23311;48.776;9.162;2023-07-20T04:39:19;3.67;;;2.10;;
291;SDS011;23311;48.776;9.162;2023-07-20T04:41:58;3.30;;;2.00;;
291;SDS011;23311;48.776;9.162;2023-07-20T04:44:26;2.70;;;1.87;;
291;SDS011;23311;48.776;9.162;2023-07-20T04:46:54;3.63;;;2.30;;
291;SDS011;23311;48.776;9.162;2023-07-20T04:49:22;3.90;;;2.50;;
291;SDS011;23311;48.776;9.162;2023-07-20T04:51:51;3.00;;;2.00;;
291;SDS011;23311;48.776;9.162;2023-07-20T04:54:19;3.37;;;2.10;;
291;SDS011;23311;48.776;9.162;2023-07-20T04:56:48;3.53;;;1.73;;
291;SDS011;23311;48.776;9.162;2023-07-20T04:59:18;3.83;;;1.83;;
291;SDS011;23311;48.776;9.162;2023-07-20T05:01:46;2.90;;;1.90;;
291;SDS011;23311;48.776;9.162;2023-07-20T05:04:14;2.67;;;1.80;;
291;SDS011;23311;48.776;9.162;2023-07-20T05:06:44;3.40;;;2.27;;
291;SDS011;23311;48.776;9.162;2023-07-20T05:09:12;4.23;;;2.63;;
291;SDS011;23311;48.776;9.162;2023-07-20T05:11:40;2.80;;;1.83;;
291;SDS011;23311;48.776;9.162;2023-07-20T05:14:11;3.93;;;2.17;;
291;SDS011;23311;48.776;9.162;2023-07-20T05:16:40;5.00;;;2.17;;
291;SDS011;23311;48.776;9.162;2023-07-20T05:19:09;2.73;;;2.10;;
291;SDS011;23311;48.776;9.162;2023-07-20T05:21:37;3.00;;;2.27;;
291;SDS011;23311;48.776;9.162;2023-07-20T05:24:05;3.07;;;1.77;;
291;SDS011;23311;48.776;9.162;2023-07-20T05:26:34;3.60;;;2.13;;
291;SDS011;23311;48.776;9.162;2023-07-20T05:29:02;3.43;;;1.53;;
291;SDS011;23311;48.776;9.162;2023-07-20T05:31:31;6.20;;;2.60;;
291;SDS011;23311;48.776;9.162;2023-07-20T05:34:00;4.27;;;2.37;;
291;SDS011;23311;48.776;9.162;2023-07-20T05:36:29;4.50;;;2.20;;
291;SDS011;23311;48.776;9.162;2023-07-20T05:38:57;3.40;;;1.70;;
291;SDS011;23311;48.776;9.162;2023-07-20T05:41:25;2.87;;;2.60;;
291;SDS011;23311;48.776;9.162;2023-07-20T05:43:53;3.13;;;2.23;;
291;SDS011;23311;48.776;9.162;2023-07-20T05:46:22;4.90;;;2.07;;
291;SDS011;23311;48.776;9.162;2023-07-20T05:48:52;4.87;;;2.40;;
291;SDS011;23311;48.776;9.162;2023-07-20T05:51:21;2.73;;;1.90;;
291;SDS011;23311;48.776;9.162;2023-07-20T05:53:49;3.30;;;1.93;;
291;SDS011;23311;48.776;9.162;2023-07-20T05:56:20;3.10;;;1.77;;
291;SDS011;23311;48.776;9.162;2023-07-20T05:58:52;3.33;;;1.93;;
291;SDS011;23311;48.776;9.162;2023-07-20T06:01:20;2.90;;;1.73;;
291;SDS011;23311;48.776;9.162;2023-07-20T06:03:48;4.20;;;2.10;;
291;SDS011;23311;48.776;9.162;2023-07-20T06:06:16;2.87;;;2.17;;
291;SDS011;23311;48.776;9.162;2023-07-20T06:08:46;3.50;;;1.90;;
291;SDS011;23311;48.776;9.162;2023-07-20T06:11:14;3.10;;;2.00;;
291;SDS011;23311;48.776;9.162;2023-07-20T06:13:43;3.13;;;2.20;;
291;SDS011;23311;48.776;9.162;2023-07-20T06:16:11;3.53;;;1.80;;
291;SDS011;23311;48.776;9.162;2023-07-20T06:18:40;5.23;;;2.10;;
291;SDS011;23311;48.776;9.162;2023-07-20T06:21:08;3.07;;;1.90;;
291;SDS011;23311;48.776;9.162;2023-07-20T06:23:36;4.20;;;2.00;;
291;SDS011;23311;48.776;9.162;2023-07-20T06:26:06;3.60;;;2.00;;
291;SDS011;23311;48.776;9.162;2023-07-20T06:28:35;4.57;;;2.10;;
291;SDS011;23311;48.776;9.162;2023-07-20T06:31:03;2.70;;;1.93;;
291;SDS011;23311;48.776;9.162;2023-07-20T06:33:32;3.50;;;2.00;;
291;SDS011;23311;48.776;9.162;2023-07-20T06:36:00;2.53;;;2.10;;
291;SDS011;23311;48.776;9.162;2023-07-20T06:38:29;3.37;;;2.23;;
291;SDS011;23311;48.776;9.162;2023-07-20T06:40:58;2.83;;;1.83;;
291;SDS011;23311;48.776;9.162;2023-07-20T06:43:47;3.60;;;1.80;;
291;SDS011;23311;48.776;9.162;2023-07-20T06:46:15;3.63;;;2.27;;
291;SDS011;23311;48.776;9.162;2023-07-20T06:48:44;4.40;;;2.10;;
291;SDS011;23311;48.776;9.162;2023-07-20T06:51:15;2.87;;;1.90;;
291;SDS011;23311;48.776;9.162;2023-07-20T06:53:44;4.73;;;2.00;;
291;SDS011;23311;48.776;9.162;2023-07-20T06:56:17;4.27;;;2.03;;
291;SDS011;23311;48.776;9.162;2023-07-20T06:58:50;3.33;;;2.60;;
291;SDS011;23311;48.776;9.162;2023-07-20T07:01:18;5.60;;;2.00;;
291;SDS011;23311;48.776;9.162;2023-07-20T07:03:49;4.93;;;2.40;;
291;SDS011;23311;48.776;9.162;2023-07-20T07:06:21;2.87;;;1.60;;
291;SDS011;23311;48.776;9.162;2023-07-20T07:08:51;3.83;;;1.80;;
291;SDS011;23311;48.776;9.162;2023-07-20T07:11:20;6.80;;;2.40;;
291;SDS011;23311;48.776;9.162;2023-07-20T07:13:50;4.13;;;2.00;;
291;SDS011;23311;48.776;9.162;2023-07-20T07:16:18;4.40;;;1.90;;
291;SDS011;23311;48.776;9.162;2023-07-20T07:18:47;3.47;;;1.90;;
291;SDS011;23311;48.776;9.162;2023-07-20T07:21:17;2.57;;;1.87;;
291;SDS011;23311;48.776;9.162;2023-07-20T07:23:45;4.13;;;2.30;;
291;SDS011;23311;48.776;9.162;2023-07-20T07:26:14;3.77;;;2.50;;
291;SDS011;23311;48.776;9.162;2023-07-20T07:28:42;3.23;;;2.00;;
291;SDS011;23311;48.776;9.162;2023-07-20T07:31:12;2.73;;;1.80;;
291;SDS011;23311;48.776;9.162;2023-07-20T07:33:41;3.97;;;1.93;;
291;SDS011;23311;48.776;9.162;2023-07-20T07:36:09;2.70;;;2.07;;
291;SDS011;23311;48.776;9.162;2023-07-20T07:38:37;3.13;;;2.43;;
291;SDS011;23311;48.776;9.162;2023-07-20T07:41:25;3.37;;;1.80;;
291;SDS011;23311;48.776;9.162;2023-07-20T07:43:53;3.50;;;2.43;;
291;SDS011;23311;48.776;9.162;2023-07-20T07:46:22;3.30;;;2.10;;
291;SDS011;23311;48.776;9.162;2023-07-20T07:48:51;3.60;;;2.10;;
291;SDS011;23311;48.776;9.162;2023-07-20T07:51:19;2.33;;;1.83;;
291;SDS011;23311;48.776;9.162;2023-07-20T07:53:47;3.50;;;2.30;;
291;SDS011;23311;48.776;9.162;2023-07-20T07:56:16;5.10;;;3.00;;
291;SDS011;23311;48.776;9.162;2023-07-20T07:58:49;3.17;;;2.03;;
291;SDS011;23311;48.776;9.162;2023-07-20T08:01:18;2.90;;;2.33;;
291;SDS011;23311;48.776;9.162;2023-07-20T08:03:48;2.70;;;1.67;;
291;SDS011;23311;48.776;9.162;2023-07-20T08:06:16;2.47;;;2.03;;
291;SDS011;23311;48.776;9.162;2023-07-20T08:08:44;5.63;;;2.70;;
291;SDS011;23311;48.776;9.162;2023-07-20T08:11:12;2.67;;;1.90;;
291;SDS011;23311;48.776;9.162;2023-07-20T08:13:41;2.90;;;1.90;;
291;SDS011;23311;48.776;9.162;2023-07-20T08:16:09;3.10;;;1.63;;
291;SDS011;23311;48.776;9.162;2023-07-20T08:18:38;3.10;;;2.10;;
291;SDS011;23311;48.776;9.162;2023-07-20T08:21:07;3.63;;;2.27;;
291;SDS011;23311;48.776;9.162;2023-07-20T08:23:35;3.33;;;1.93;;
291;SDS011;23311;48.776;9.162;2023-07-20T08:26:04;2.33;;;2.07;;
291;SDS011;23311;48.776;9.162;2023-07-20T08:28:32;2.77;;;1.80;;
291;SDS011;23311;48.776;9.162;2023-07-20T08:31:00;3.97;;;2.10;;
291;SDS011;23311;48.776;9.162;2023-07-20T08:33:29;9.03;;;2.00;;
291;SDS011;23311;48.776;9.162;2023-07-20T08:36:00;4.30;;;2.00;;
291;SDS011;23311;48.776;9.162;2023-07-20T08:38:31;3.23;;;2.40;;
291;SDS011;23311;48.776;9.162;2023-07-20T08:40:59;4.00;;;2.40;;
291;SDS011;23311;48.776;9.162;2023-07-20T08:43:28;3.37;;;1.70;;
291;SDS011;23311;48.776;9.162;2023-07-20T08:45:57;2.37;;;1.90;;
291;SDS011;23311;48.776;9.162;2023-07-20T08:48:26;5.03;;;1.80;;
291;SDS011;23311;48.776;9.162;2023-07-20T08:50:55;2.90;;;1.90;;
291;SDS011;23311;48.776;9.162;2023-07-20T08:53:27;3.00;;;2.27;;
291;SDS011;23311;48.776;9.162;2023-07-20T08:55:58;2.80;;;1.77;;
291;SDS011;23311;48.776;9.162;2023-07-20T08:58:28;3.40;;;2.37;;
291;SDS011;23311;48.776;9.162;2023-07-20T09:00:58;3.30;;;1.73;;
291;SDS011;23311;48.776;9.162;2023-07-20T09:03:28;4.43;;;2.00;;
291;SDS011;23311;48.776;9.162;2023-07-20T09:05:56;3.97;;;1.90;;
291;SDS011;23311;48.776;9.162;2023-07-20T09:08:24;4.03;;;1.70;;
291;SDS011;23311;48.776;9.162;2023-07-20T09:10:52;4.17;;;2.40;;
291;SDS011;23311;48.776;9.162;2023-07-20T09:13:22;2.70;;;1.93;;
291;SDS011;23311;48.776;9.162;2023-07-20T09:15:52;3.03;;;2.20;;
291;SDS011;23311;48.776;9.162;2023-07-20T09:18:25;2.80;;;2.10;;
291;SDS011;23311;48.776;9.162;2023-07-20T09:20:57;5.37;;;2.27;;
291;SDS011;23311;48.776;9.162;2023-07-20T09:23:31;1.87;;;1.47;;
291;SDS011;23311;48.776;9.162;2023-07-20T09:26:00;2.23;;;1.70;;
291;SDS011;23311;48.776;9.162;2023-07-20T09:28:29;2.70;;;2.10;;
291;SDS011;23311;48.776;9.162;2023-07-20T09:31:07;3.43;;;1.93;;
291;SDS011;23311;48.776;9.162;2023-07-20T09:33:43;5.20;;;1.90;;
291;SDS011;23311;48.776;9.162;2023-07-20T09:36:15;2.87;;;2.17;;
291;SDS011;23311;48.776;9.162;2023-07-20T09:39:03;2.93;;;2.30;;
291;SDS011;23311;48.776;9.162;2023-07-20T09:41:39;3.20;;;1.83;;
291;SDS011;23311;48.776;9.162;2023-07-20T09:44:12;2.80;;;1.50;;
291;SDS011;23311;48.776;9.162;2023-07-20T09:46:45;2.60;;;2.00;;
291;SDS011;23311;48.776;9.162;2023-07-20T09:49:17;3.30;;;2.00;;
291;SDS011;23311;48.776;9.162;2023-07-20T09:51:48;2.10;;;1.80;;
291;SDS011;23311;48.776;9.162;2023-07-20T09:54:16;2.90;;;1.90;;
291;SDS011;23311;48.776;9.162;2023-07-20T09:56:45;3.63;;;1.63;;
291;SDS011;23311;48.776;9.162;2023-07-20T09:59:16;1.90;;;1.50;;
291;SDS011;23311;48.776;9.162;2023-07-20T10:01:44;2.70;;;1.80;;
291;SDS011;23311;48.776;9.162;2023-07-20T10:04:15;2.57;;;1.60;;
291;SDS011;23311;48.776;9.162;2023-07-20T10:06:47;3.97;;;1.90;;
291;SDS011;23311;48.776;9.162;2023-07-20T10:09:19;3.40;;;2.10;;
291;SDS011;23311;48.776;9.162;2023-07-20T10:11:49;2.83;;;1.80;;
291;SDS011;23311;48.776;9.162;2023-07-20T10:14:40;2.20;;;1.60;;
291;SDS011;23311;48.776;9.162;2023-07-20T10:17:12;3.20;;;1.37;;
291;SDS011;23311;48.776;9.162;2023-07-20T10:19:42;2.33;;;1.63;;
291;SDS011;23311;48.776;9.162;2023-07-20T10:22:18;2.00;;;1.60;;
291;SDS011;23311;48.776;9.162;2023-07-20T10:24:50;1.97;;;1.60;;
291;SDS011;23311;48.776;9.162;2023-07-20T10:27:20;5.10;;;2.00;;
291;SDS011;23311;48.776;9.162;2023-07-20T10:29:51;2.10;;;1.30;;
291;SDS011;23311;48.776;9.162;2023-07-20T10:32:21;2.00;;;1.50;;
291;SDS011;23311;48.776;9.162;2023-07-20T10:34:50;2.60;;;1.73;;
291;SDS011;23311;48.776;9.162;2023-07-20T10:40:29;3.10;;;1.90;;
291;SDS011;23311;48.776;9.162;2023-07-20T10:43:03;1.90;;;1.10;;
291;SDS011;23311;48.776;9.162;2023-07-20T10:45:35;2.10;;;1.80;;
291;SDS011;23311;48.776;9.162;2023-07-20T10:48:16;3.90;;;1.33;;
291;SDS011;23311;48.776;9.162;2023-07-20T10:50:48;2.40;;;1.57;;
291;SDS011;23311;48.776;9.162;2023-07-20T10:53:38;2.67;;;1.73;;
291;SDS011;23311;48.776;9.162;2023-07-20T10:56:09;2.90;;;1.33;;
291;SDS011;23311;48.776;9.162;2023-07-20T10:58:39;2.33;;;1.40;;
291;SDS011;23311;48.776;9.162;2023-07-20T11:01:12;2.10;;;1.30;;
291;SDS011;23311;48.776;9.162;2023-07-20T11:03:48;1.93;;;1.33;;
291;SDS011;23311;48.776;9.162;2023-07-20T11:06:31;2.83;;;1.43;;
291;SDS011;23311;48.776;9.162;2023-07-20T11:09:05;2.10;;;1.30;;
291;SDS011;23311;48.776;9.162;2023-07-20T11:11:37;2.07;;;1.50;;
291;SDS011;23311;48.776;9.162;2023-07-20T11:14:06;1.60;;;1.30;;
291;SDS011;23311;48.776;9.162;2023-07-20T11:16:37;2.00;;;1.10;;
291;SDS011;23311;48.776;9.162;2023-07-20T11:19:13;3.27;;;1.90;;
291;SDS011;23311;48.776;9.162;2023-07-20T11:22:03;2.97;;;1.50;;
291;SDS011;23311;48.776;9.162;2023-07-20T11:24:34;1.90;;;1.33;;
291;SDS011;23311;48.776;9.162;2023-07-20T11:27:05;2.47;;;1.63;;
291;SDS011;23311;48.776;9.162;2023-07-20T11:29:34;2.27;;;1.10;;
291;SDS011;23311;48.776;9.162;2023-07-20T11:32:04;2.30;;;1.20;;
291;SDS011;23311;48.776;9.162;2023-07-20T11:34:33;2.10;;;1.40;;
291;SDS011;23311;48.776;9.162;2023-07-20T11:37:02;2.40;;;1.63;;
291;SDS011;23311;48.776;9.162;2023-07-20T11:39:35;2.57;;;1.47;;
291;SDS011;23311;48.776;9.162;2023-07-20T11:42:04;2.00;;;1.50;;
291;SDS011;23311;48.776;9.162;2023-07-20T11:44:33;2.73;;;1.57;;
291;SDS011;23311;48.776;9.162;2023-07-20T11:47:02;3.00;;;1.43;;
291;SDS011;23311;48.776;9.162;2023-07-20T11:49:36;2.07;;;1.13;;
291;SDS011;23311;48.776;9.162;2023-07-20T11:52:05;2.80;;;1.40;;
291;SDS011;23311;48.776;9.162;2023-07-20T11:54:35;2.60;;;1.47;;
291;SDS011;23311;48.776;9.162;2023-07-20T11:57:05;2.30;;;1.30;;
291;SDS011;23311;48.776;9.162;2023-07-20T11:59:33;3.90;;;1.60;;
291;SDS011;23311;48.776;9.162;2023-07-20T12:02:01;2.10;;;1.50;;
291;SDS011;23311;48.776;9.162;2023-07-20T12:04:32;2.53;;;1.17;;
291;SDS011;23311;48.776;9.162;2023-07-20T12:07:01;2.53;;;1.20;;
291;SDS011;23311;48.776;9.162;2023-07-20T12:09:29;1.93;;;0.90;;
291;SDS011;23311;48.776;9.162;2023-07-20T12:12:15;2.60;;;1.40;;
291;SDS011;23311;48.776;9.162;2023-07-20T12:14:43;1.60;;;1.20;;
291;SDS011;23311;48.776;9.162;2023-07-20T12:17:12;5.27;;;1.40;;
291;SDS011;23311;48.776;9.162;2023-07-20T12:19:42;3.87;;;1.43;;
291;SDS011;23311;48.776;9.162;2023-07-20T12:22:10;2.20;;;1.50;;
291;SDS011;23311;48.776;9.162;2023-07-20T12:24:39;1.83;;;1.20;;
291;SDS011;23311;48.776;9.162;2023-07-20T12:27:07;2.17;;;1.37;;
291;SDS011;23311;48.776;9.162;2023-07-20T12:29:35;2.40;;;1.50;;
291;SDS011;23311;48.776;9.162;2023-07-20T12:32:04;2.03;;;1.50;;
291;SDS011;23311;48.776;9.162;2023-07-20T12:34:33;2.10;;;1.50;;
291;SDS011;23311;48.776;9.162;2023-07-20T12:37:04;2.10;;;1.23;;
291;SDS011;23311;48.776;9.162;2023-07-20T12:39:35;2.13;;;1.37;;
291;SDS011;23311;48.776;9.162;2023-07-20T12:42:04;2.27;;;1.90;;
291;SDS011;23311;48.776;9.162;2023-07-20T12:44:33;2.73;;;1.67;;
291;SDS011;23311;48.776;9.162;2023-07-20T12:47:01;1.90;;;1.23;;
291;SDS011;23311;48.776;9.162;2023-07-20T12:49:29;2.50;;;1.47;;
291;SDS011;23311;48.776;9.162;2023-07-20T12:51:57;3.67;;;1.87;;
291;SDS011;23311;48.776;9.162;2023-07-20T12:54:27;2.83;;;1.53;;
291;SDS011;23311;48.776;9.162;2023-07-20T12:56:57;2.27;;;1.17;;
291;SDS011;23311;48.776;9.162;2023-07-20T12:59:28;2.07;;;1.47;;
291;SDS011;23311;48.776;9.162;2023-07-20T13:01:56;2.50;;;1.67;;
291;SDS011;23311;48.776;9.162;2023-07-20T13:04:25;4.70;;;1.20;;
291;SDS011;23311;48.776;9.162;2023-07-20T13:06:53;2.07;;;1.00;;
291;SDS011;23311;48.776;9.162;2023-07-20T13:09:22;2.57;;;1.10;;
291;SDS011;23311;48.776;9.162;2023-07-20T13:11:51;1.33;;;1.00;;
291;SDS011;23311;48.776;9.162;2023-07-20T13:14:20;2.50;;;1.43;;
291;SDS011;23311;48.776;9.162;2023-07-20T13:16:48;2.00;;;1.20;;
291;SDS011;23311;48.776;9.162;2023-07-20T13:19:16;2.43;;;1.40;;
291;SDS011;23311;48.776;9.162;2023-07-20T13:21:44;2.30;;;1.13;;
291;SDS011;23311;48.776;9.162;2023-07-20T13:24:12;2.10;;;1.20;;
291;SDS011;23311;48.776;9.162;2023-07-20T13:26:40;1.77;;;1.17;;
291;SDS011;23311;48.776;9.162;2023-07-20T13:29:09;2.83;;;1.70;;
291;SDS011;23311;48.776;9.162;2023-07-20T13:31:38;2.57;;;1.20;;
291;SDS011;23311;48.776;9.162;2023-07-20T13:34:08;6.03;;;1.83;;
291;SDS011;23311;48.776;9.162;2023-07-20T13:36:36;2.27;;;1.40;;
291;SDS011;23311;48.776;9.162;2023-07-20T13:39:04;1.60;;;1.33;;
291;SDS011;23311;48.776;9.162;2023-07-20T13:41:32;1.70;;;1.10;;
291;SDS011;23311;48.776;9.162;2023-07-20T13:44:01;2.73;;;1.77;;
291;SDS011;23311;48.776;9.162;2023-07-20T13:46:33;4.47;;;1.23;;
291;SDS011;23311;48.776;9.162;2023-07-20T13:49:04;3.93;;;1.40;;
291;SDS011;23311;48.776;9.162;2023-07-20T13:51:39;2.03;;;1.27;;
291;SDS011;23311;48.776;9.162;2023-07-20T13:54:07;2.00;;;1.13;;
291;SDS011;23311;48.776;9.162;2023-07-20T13:56:39;2.03;;;1.17;;
291;SDS011;23311;48.776;9.162;2023-07-20T13:59:08;2.43;;;1.40;;
291;SDS011;23311;48.776;9.162;2023-07-20T14:01:37;2.00;;;1.37;;
291;SDS011;23311;48.776;9.162;2023-07-20T14:04:06;1.90;;;1.37;;
291;SDS011;23311;48.776;9.162;2023-07-20T14:06:35;2.50;;;1.40;;
291;SDS011;23311;48.776;9.162;2023-07-20T14:09:04;2.33;;;1.23;;
291;SDS011;23311;48.776;9.162;2023-07-20T14:11:32;2.30;;;1.30;;
291;SDS011;23311;48.776;9.162;2023-07-20T14:14:03;2.57;;;1.50;;
291;SDS011;23311;48.776;9.162;2023-07-20T14:16:31;3.07;;;1.70;;
291;SDS011;23311;48.776;9.162;2023-07-20T14:19:01;3.10;;;1.37;;
291;SDS011;23311;48.776;9.162;2023-07-20T14:21:31;2.33;;;1.43;;
291;SDS011;23311;48.776;9.162;2023-07-20T14:23:59;3.10;;;1.07;;
291;SDS011;23311;48.776;9.162;2023-07-20T14:26:28;2.47;;;1.83;;
291;SDS011;23311;48.776;9.162;2023-07-20T14:28:59;1.90;;;1.13;;
291;SDS011;23311;48.776;9.162;2023-07-20T14:31:28;3.23;;;1.20;;
291;SDS011;23311;48.776;9.162;2023-07-20T14:33:58;2.80;;;1.00;;
291;SDS011;23311;48.776;9.162;2023-07-20T14:36:27;1.80;;;1.27;;
291;SDS011;23311;48.776;9.162;2023-07-20T14:38:59;3.40;;;1.47;;
291;SDS011;23311;48.776;9.162;2023-07-20T14:41:27;2.33;;;1.47;;
291;SDS011;23311;48.776;9.162;2023-07-20T14:43:55;3.57;;;1.27;;
291;SDS011;23311;48.776;9.162;2023-07-20T14:46:24;1.50;;;1.10;;
291;SDS011;23311;48.776;9.162;2023-07-20T14:48:52;1.70;;;1.37;;
291;SDS011;23311;48.776;9.162;2023-07-20T14:51:20;2.17;;;1.40;;
291;SDS011;23311;48.776;9.162;2023-07-20T14:53:50;3.10;;;1.60;;
291;SDS011;23311;48.776;9.162;2023-07-20T14:56:18;1.90;;;1.10;;
291;SDS011;23311;48.776;9.162;2023-07-20T14:58:46;2.63;;;1.40;;
291;SDS011;23311;48.776;9.162;2023-07-20T15:01:14;1.70;;;1.30;;
291;SDS011;23311;48.776;9.162;2023-07-20T15:03:42;3.17;;;1.20;;
291;SDS011;23311;48.776;9.162;2023-07-20T15:06:11;4.63;;;1.47;;
291;SDS011;23311;48.776;9.162;2023-07-20T15:08:39;1.60;;;1.10;;
291;SDS011;23311;48.776;9.162;2023-07-20T15:11:08;2.17;;;1.40;;
291;SDS011;23311;48.776;9.162;2023-07-20T15:13:36;2.60;;;1.47;;
291;SDS011;23311;48.776;9.162;2023-07-20T15:16:05;3.30;;;1.30;;
291;SDS011;23311;48.776;9.162;2023-07-20T15:18:33;2.60;;;1.67;;
291;SDS011;23311;48.776;9.162;2023-07-20T15:21:14;1.63;;;1.10;;
291;SDS011;23311;48.776;9.162;2023-07-20T15:23:42;3.47;;;1.37;;
291;SDS011;23311;48.776;9.162;2023-07-20T15:26:12;2.17;;;1.17;;
291;SDS011;23311;48.776;9.162;2023-07-20T15:28:41;1.93;;;1.30;;
291;SDS011;23311;48.776;9.162;2023-07-20T15:31:09;2.30;;;1.40;;
291;SDS011;23311;48.776;9.162;2023-07-20T15:33:37;2.57;;;1.10;;
291;SDS011;23311;48.776;9.162;2023-07-20T15:36:05;2.40;;;1.50;;
291;SDS011;23311;48.776;9.162;2023-07-20T15:38:34;2.33;;;1.40;;
291;SDS011;23311;48.776;9.162;2023-07-20T15:41:02;1.90;;;1.50;;